sensor_id;sensor_type;location;lat;lon;timestamp;P1;durP1;ratioP1;P2;durP2;ratioP2
5945;SDS011;2998;48.206;16.394;2022-09-20T00:01:02;6.57;;;3.00;;
5945;SDS011;2998;48.206;16.394;2022-09-20T00:03:33;2.40;;;2.30;;
5945;SDS011;2998;48.206;16.394;2022-09-20T00:06:02;2.70;;;2.33;;
5945;SDS011;2998;48.206;16.394;2022-09-20T00:08:33;4.63;;;2.50;;
5945;SDS011;2998;48.206;16.394;2022-09-20T00:11:01;2.40;;;2.20;;
5945;SDS011;2998;48.206;16.394;2022-09-20T00:13:30;3.70;;;2.20;;
5945;SDS011;2998;48.206;16.394;2022-09-20T00:15:58;2.70;;;2.50;;
5945;SDS011;2998;48.206;16.394;2022-09-20T00:18:26;3.20;;;2.57;;
5945;SDS011;2998;48.206;16.394;2022-09-20T00:20:54;2.90;;;2.23;;
5945;SDS011;2998;48.206;16.394;2022-09-20T00:23:23;2.43;;;2.23;;
5945;SDS011;2998;48.206;16.394;2022-09-20T00:25:55;2.83;;;1.83;;
5945;SDS011;2998;48.206;16.394;2022-09-20T00:28:23;5.10;;;2.70;;
5945;SDS011;2998;48.206;16.394;2022-09-20T00:30:51;2.60;;;2.37;;
5945;SDS011;2998;48.206;16.394;2022-09-20T00:33:19;3.63;;;1.90;;
5945;SDS011;2998;48.206;16.394;2022-09-20T00:35:48;2.37;;;2.27;;
5945;SDS011;2998;48.206;16.394;2022-09-20T00:38:15;2.40;;;2.30;;
5945;SDS011;2998;48.206;16.394;2022-09-20T00:40:45;2.17;;;1.97;;
5945;SDS011;2998;48.206;16.394;2022-09-20T00:43:13;1.73;;;1.63;;
5945;SDS011;2998;48.206;16.394;2022-09-20T00:45:42;8.10;;;1.77;;
5945;SDS011;2998;48.206;16.394;2022-09-20T00:48:11;1.87;;;1.77;;
5945;SDS011;2998;48.206;16.394;2022-09-20T00:50:41;2.10;;;1.97;;
5945;SDS011;2998;48.206;16.394;2022-09-20T00:53:13;2.20;;;2.10;;
5945;SDS011;2998;48.206;16.394;2022-09-20T00:55:46;1.60;;;1.50;;
5945;SDS011;2998;48.206;16.394;2022-09-20T00:58:16;1.70;;;1.60;;
5945;SDS011;2998;48.206;16.394;2022-09-20T01:00:45;1.50;;;1.40;;
5945;SDS011;2998;48.206;16.394;2022-09-20T01:03:15;1.50;;;1.37;;
5945;SDS011;2998;48.206;16.394;2022-09-20T01:05:45;4.23;;;1.80;;
5945;SDS011;2998;48.206;16.394;2022-09-20T01:08:13;1.57;;;1.47;;
5945;SDS011;2998;48.206;16.394;2022-09-20T01:10:41;2.53;;;1.80;;
5945;SDS011;2998;48.206;16.394;2022-09-20T01:13:10;2.23;;;1.97;;
5945;SDS011;2998;48.206;16.394;2022-09-20T01:15:39;1.97;;;1.50;;
5945;SDS011;2998;48.206;16.394;2022-09-20T01:18:07;1.73;;;1.63;;
5945;SDS011;2998;48.206;16.394;2022-09-20T01:20:37;2.20;;;2.10;;
5945;SDS011;2998;48.206;16.394;2022-09-20T01:23:11;2.50;;;2.30;;
5945;SDS011;2998;48.206;16.394;2022-09-20T01:26:00;2.00;;;1.90;;
5945;SDS011;2998;48.206;16.394;2022-09-20T01:28:37;2.20;;;2.00;;
5945;SDS011;2998;48.206;16.394;2022-09-20T01:31:07;2.00;;;1.90;;
5945;SDS011;2998;48.206;16.394;2022-09-20T01:33:40;1.73;;;1.63;;
5945;SDS011;2998;48.206;16.394;2022-09-20T01:36:12;3.70;;;2.50;;
5945;SDS011;2998;48.206;16.394;2022-09-20T01:38:43;2.13;;;2.03;;
5945;SDS011;2998;48.206;16.394;2022-09-20T01:41:17;2.50;;;2.30;;
5945;SDS011;2998;48.206;16.394;2022-09-20T01:43:50;2.47;;;2.27;;
5945;SDS011;2998;48.206;16.394;2022-09-20T01:46:22;4.30;;;2.20;;
5945;SDS011;2998;48.206;16.394;2022-09-20T01:48:59;2.60;;;2.43;;
5945;SDS011;2998;48.206;16.394;2022-09-20T01:57:37;2.50;;;2.40;;
5945;SDS011;2998;48.206;16.394;2022-09-20T02:00:34;2.30;;;2.20;;
5945;SDS011;2998;48.206;16.394;2022-09-20T02:03:23;2.23;;;1.87;;
5945;SDS011;2998;48.206;16.394;2022-09-20T02:06:10;2.17;;;2.07;;
5945;SDS011;2998;48.206;16.394;2022-09-20T02:11:58;1.97;;;1.87;;
5945;SDS011;2998;48.206;16.394;2022-09-20T02:15:01;2.50;;;2.00;;
5945;SDS011;2998;48.206;16.394;2022-09-20T02:17:37;3.83;;;1.77;;
5945;SDS011;2998;48.206;16.394;2022-09-20T02:20:12;2.70;;;1.60;;
5945;SDS011;2998;48.206;16.394;2022-09-20T02:22:48;1.87;;;1.77;;
5945;SDS011;2998;48.206;16.394;2022-09-20T02:25:32;1.50;;;1.40;;
5945;SDS011;2998;48.206;16.394;2022-09-20T02:28:10;2.10;;;1.90;;
5945;SDS011;2998;48.206;16.394;2022-09-20T02:30:46;2.07;;;1.50;;
5945;SDS011;2998;48.206;16.394;2022-09-20T02:33:35;3.03;;;1.60;;
5945;SDS011;2998;48.206;16.394;2022-09-20T02:36:19;1.27;;;1.27;;
5945;SDS011;2998;48.206;16.394;2022-09-20T02:38:56;1.93;;;1.50;;
5945;SDS011;2998;48.206;16.394;2022-09-20T02:41:48;1.40;;;1.30;;
5945;SDS011;2998;48.206;16.394;2022-09-20T02:44:21;2.37;;;1.30;;
5945;SDS011;2998;48.206;16.394;2022-09-20T02:46:56;1.40;;;1.30;;
5945;SDS011;2998;48.206;16.394;2022-09-20T02:49:32;1.00;;;1.00;;
5945;SDS011;2998;48.206;16.394;2022-09-20T02:52:03;1.10;;;1.10;;
5945;SDS011;2998;48.206;16.394;2022-09-20T02:54:40;0.97;;;0.97;;
5945;SDS011;2998;48.206;16.394;2022-09-20T02:57:13;0.97;;;0.83;;
5945;SDS011;2998;48.206;16.394;2022-09-20T02:59:45;0.80;;;0.80;;
5945;SDS011;2998;48.206;16.394;2022-09-20T03:02:19;1.00;;;1.00;;
5945;SDS011;2998;48.206;16.394;2022-09-20T03:04:54;0.70;;;0.70;;
5945;SDS011;2998;48.206;16.394;2022-09-20T03:07:42;0.90;;;0.77;;
5945;SDS011;2998;48.206;16.394;2022-09-20T03:10:20;0.70;;;0.70;;
5945;SDS011;2998;48.206;16.394;2022-09-20T03:12:56;2.20;;;1.50;;
5945;SDS011;2998;48.206;16.394;2022-09-20T03:15:37;2.17;;;1.97;;
5945;SDS011;2998;48.206;16.394;2022-09-20T03:18:13;2.00;;;1.90;;
5945;SDS011;2998;48.206;16.394;2022-09-20T03:20:46;1.50;;;1.40;;
5945;SDS011;2998;48.206;16.394;2022-09-20T03:23:22;1.70;;;1.60;;
5945;SDS011;2998;48.206;16.394;2022-09-20T03:26:01;1.90;;;1.80;;
5945;SDS011;2998;48.206;16.394;2022-09-20T03:28:39;1.70;;;1.60;;
5945;SDS011;2998;48.206;16.394;2022-09-20T03:31:23;2.40;;;1.47;;
5945;SDS011;2998;48.206;16.394;2022-09-20T03:33:59;4.60;;;1.53;;
5945;SDS011;2998;48.206;16.394;2022-09-20T03:36:37;2.70;;;1.53;;
5945;SDS011;2998;48.206;16.394;2022-09-20T03:39:30;1.67;;;1.33;;
5945;SDS011;2998;48.206;16.394;2022-09-20T03:42:11;1.27;;;1.17;;
5945;SDS011;2998;48.206;16.394;2022-09-20T03:44:52;1.60;;;1.50;;
5945;SDS011;2998;48.206;16.394;2022-09-20T03:47:38;6.10;;;1.73;;
5945;SDS011;2998;48.206;16.394;2022-09-20T03:50:32;2.50;;;1.60;;
5945;SDS011;2998;48.206;16.394;2022-09-20T03:53:33;1.87;;;1.77;;
5945;SDS011;2998;48.206;16.394;2022-09-20T03:59:00;2.70;;;1.27;;
5945;SDS011;2998;48.206;16.394;2022-09-20T04:01:44;1.83;;;1.70;;
5945;SDS011;2998;48.206;16.394;2022-09-20T04:04:23;2.10;;;1.57;;
5945;SDS011;2998;48.206;16.394;2022-09-20T04:07:03;6.93;;;1.67;;
5945;SDS011;2998;48.206;16.394;2022-09-20T04:12:49;1.50;;;1.40;;
5945;SDS011;2998;48.206;16.394;2022-09-20T04:15:29;2.20;;;1.33;;
5945;SDS011;2998;48.206;16.394;2022-09-20T04:18:00;2.17;;;1.50;;
5945;SDS011;2998;48.206;16.394;2022-09-20T04:20:35;1.87;;;1.50;;
5945;SDS011;2998;48.206;16.394;2022-09-20T04:23:11;1.40;;;1.30;;
5945;SDS011;2998;48.206;16.394;2022-09-20T04:25:46;1.80;;;1.70;;
5945;SDS011;2998;48.206;16.394;2022-09-20T04:28:16;2.57;;;1.60;;
5945;SDS011;2998;48.206;16.394;2022-09-20T04:30:48;2.63;;;1.80;;
5945;SDS011;2998;48.206;16.394;2022-09-20T04:33:19;1.77;;;1.67;;
5945;SDS011;2998;48.206;16.394;2022-09-20T04:35:52;1.97;;;1.80;;
5945;SDS011;2998;48.206;16.394;2022-09-20T04:38:42;1.80;;;1.70;;
5945;SDS011;2998;48.206;16.394;2022-09-20T04:41:17;1.70;;;1.60;;
5945;SDS011;2998;48.206;16.394;2022-09-20T04:44:12;1.73;;;1.63;;
5945;SDS011;2998;48.206;16.394;2022-09-20T04:46:57;1.70;;;1.60;;
5945;SDS011;2998;48.206;16.394;2022-09-20T04:52:40;5.23;;;2.23;;
5945;SDS011;2998;48.206;16.394;2022-09-20T04:55:23;2.50;;;2.40;;
5945;SDS011;2998;48.206;16.394;2022-09-20T05:01:16;4.23;;;3.93;;
5945;SDS011;2998;48.206;16.394;2022-09-20T05:07:27;12.20;;;6.10;;
5945;SDS011;2998;48.206;16.394;2022-09-20T05:13:33;5.83;;;3.70;;
5945;SDS011;2998;48.206;16.394;2022-09-20T05:16:10;5.87;;;5.30;;
5945;SDS011;2998;48.206;16.394;2022-09-20T05:18:55;5.40;;;3.90;;
5945;SDS011;2998;48.206;16.394;2022-09-20T05:21:41;4.23;;;3.33;;
5945;SDS011;2998;48.206;16.394;2022-09-20T05:24:19;6.03;;;5.00;;
5945;SDS011;2998;48.206;16.394;2022-09-20T05:27:01;3.90;;;2.63;;
5945;SDS011;2998;48.206;16.394;2022-09-20T05:29:38;10.27;;;3.03;;
5945;SDS011;2998;48.206;16.394;2022-09-20T05:32:17;3.33;;;3.03;;
5945;SDS011;2998;48.206;16.394;2022-09-20T05:34:51;3.80;;;3.50;;
5945;SDS011;2998;48.206;16.394;2022-09-20T05:37:27;3.23;;;2.93;;
5945;SDS011;2998;48.206;16.394;2022-09-20T05:40:04;4.10;;;3.80;;
5945;SDS011;2998;48.206;16.394;2022-09-20T05:42:39;4.60;;;3.17;;
5945;SDS011;2998;48.206;16.394;2022-09-20T05:45:18;4.13;;;3.70;;
5945;SDS011;2998;48.206;16.394;2022-09-20T05:47:54;4.00;;;3.60;;
5945;SDS011;2998;48.206;16.394;2022-09-20T05:50:32;3.33;;;2.60;;
5945;SDS011;2998;48.206;16.394;2022-09-20T05:53:23;3.20;;;3.00;;
5945;SDS011;2998;48.206;16.394;2022-09-20T05:56:18;2.73;;;2.53;;
5945;SDS011;2998;48.206;16.394;2022-09-20T05:58:55;8.03;;;2.60;;
5945;SDS011;2998;48.206;16.394;2022-09-20T06:01:39;2.77;;;2.50;;
5945;SDS011;2998;48.206;16.394;2022-09-20T06:04:11;2.50;;;2.30;;
5945;SDS011;2998;48.206;16.394;2022-09-20T06:06:48;2.93;;;2.73;;
5945;SDS011;2998;48.206;16.394;2022-09-20T06:09:29;2.20;;;2.00;;
5945;SDS011;2998;48.206;16.394;2022-09-20T06:12:10;6.10;;;3.60;;
5945;SDS011;2998;48.206;16.394;2022-09-20T06:14:45;3.70;;;2.97;;
5945;SDS011;2998;48.206;16.394;2022-09-20T06:17:20;1.87;;;1.77;;
5945;SDS011;2998;48.206;16.394;2022-09-20T06:19:55;2.70;;;2.50;;
5945;SDS011;2998;48.206;16.394;2022-09-20T06:22:30;4.70;;;1.90;;
5945;SDS011;2998;48.206;16.394;2022-09-20T06:25:00;4.37;;;3.30;;
5945;SDS011;2998;48.206;16.394;2022-09-20T06:27:33;2.67;;;2.33;;
5945;SDS011;2998;48.206;16.394;2022-09-20T06:30:06;2.73;;;2.53;;
5945;SDS011;2998;48.206;16.394;2022-09-20T06:32:52;2.70;;;2.50;;
5945;SDS011;2998;48.206;16.394;2022-09-20T06:35:22;1.67;;;1.57;;
5945;SDS011;2998;48.206;16.394;2022-09-20T06:37:52;1.47;;;1.37;;
5945;SDS011;2998;48.206;16.394;2022-09-20T06:40:39;1.97;;;1.87;;
5945;SDS011;2998;48.206;16.394;2022-09-20T06:43:40;2.83;;;1.57;;
5945;SDS011;2998;48.206;16.394;2022-09-20T06:46:08;2.87;;;1.80;;
5945;SDS011;2998;48.206;16.394;2022-09-20T06:48:39;3.70;;;3.40;;
5945;SDS011;2998;48.206;16.394;2022-09-20T06:51:07;2.57;;;2.47;;
5945;SDS011;2998;48.206;16.394;2022-09-20T06:53:36;2.73;;;1.90;;
5945;SDS011;2998;48.206;16.394;2022-09-20T06:56:06;2.30;;;2.00;;
5945;SDS011;2998;48.206;16.394;2022-09-20T06:58:35;3.23;;;2.57;;
5945;SDS011;2998;48.206;16.394;2022-09-20T07:01:03;4.07;;;2.00;;
5945;SDS011;2998;48.206;16.394;2022-09-20T07:03:31;1.93;;;1.60;;
5945;SDS011;2998;48.206;16.394;2022-09-20T07:06:01;2.60;;;1.20;;
5945;SDS011;2998;48.206;16.394;2022-09-20T07:08:29;1.80;;;1.17;;
5945;SDS011;2998;48.206;16.394;2022-09-20T07:11:01;3.30;;;1.60;;
5945;SDS011;2998;48.206;16.394;2022-09-20T07:13:30;2.87;;;2.63;;
5945;SDS011;2998;48.206;16.394;2022-09-20T07:16:01;2.53;;;2.33;;
5945;SDS011;2998;48.206;16.394;2022-09-20T07:18:30;1.60;;;1.50;;
5945;SDS011;2998;48.206;16.394;2022-09-20T07:20:58;2.97;;;2.03;;
5945;SDS011;2998;48.206;16.394;2022-09-20T07:23:28;2.03;;;1.93;;
5945;SDS011;2998;48.206;16.394;2022-09-20T07:25:56;3.00;;;2.80;;
5945;SDS011;2998;48.206;16.394;2022-09-20T07:28:25;2.67;;;2.20;;
5945;SDS011;2998;48.206;16.394;2022-09-20T07:30:53;2.80;;;2.60;;
5945;SDS011;2998;48.206;16.394;2022-09-20T07:33:21;7.73;;;2.60;;
5945;SDS011;2998;48.206;16.394;2022-09-20T07:35:50;2.00;;;1.90;;
5945;SDS011;2998;48.206;16.394;2022-09-20T07:38:20;2.90;;;1.53;;
5945;SDS011;2998;48.206;16.394;2022-09-20T07:40:53;1.23;;;1.10;;
5945;SDS011;2998;48.206;16.394;2022-09-20T07:43:22;1.70;;;1.60;;
5945;SDS011;2998;48.206;16.394;2022-09-20T07:45:51;1.13;;;1.07;;
5945;SDS011;2998;48.206;16.394;2022-09-20T07:48:21;2.00;;;1.20;;
5945;SDS011;2998;48.206;16.394;2022-09-20T07:50:51;3.80;;;1.60;;
5945;SDS011;2998;48.206;16.394;2022-09-20T07:53:21;1.70;;;1.00;;
5945;SDS011;2998;48.206;16.394;2022-09-20T07:55:55;2.23;;;1.20;;
5945;SDS011;2998;48.206;16.394;2022-09-20T07:58:24;0.93;;;0.93;;
5945;SDS011;2998;48.206;16.394;2022-09-20T08:00:52;1.33;;;0.80;;
5945;SDS011;2998;48.206;16.394;2022-09-20T08:03:21;0.97;;;0.90;;
5945;SDS011;2998;48.206;16.394;2022-09-20T08:05:49;1.10;;;1.10;;
5945;SDS011;2998;48.206;16.394;2022-09-20T08:08:17;1.10;;;1.10;;
5945;SDS011;2998;48.206;16.394;2022-09-20T08:10:46;2.13;;;1.17;;
5945;SDS011;2998;48.206;16.394;2022-09-20T08:13:15;2.30;;;1.30;;
5945;SDS011;2998;48.206;16.394;2022-09-20T08:16:04;1.07;;;1.07;;
5945;SDS011;2998;48.206;16.394;2022-09-20T08:18:33;0.70;;;0.70;;
5945;SDS011;2998;48.206;16.394;2022-09-20T08:21:02;4.33;;;1.60;;
5945;SDS011;2998;48.206;16.394;2022-09-20T08:23:33;2.23;;;2.03;;
5945;SDS011;2998;48.206;16.394;2022-09-20T08:26:04;1.57;;;1.03;;
5945;SDS011;2998;48.206;16.394;2022-09-20T08:28:33;2.30;;;1.13;;
5945;SDS011;2998;48.206;16.394;2022-09-20T08:31:01;1.03;;;0.93;;
5945;SDS011;2998;48.206;16.394;2022-09-20T08:33:30;1.30;;;1.20;;
5945;SDS011;2998;48.206;16.394;2022-09-20T08:35:58;1.33;;;0.80;;
5945;SDS011;2998;48.206;16.394;2022-09-20T08:38:26;1.10;;;1.00;;
5945;SDS011;2998;48.206;16.394;2022-09-20T08:41:18;2.97;;;1.33;;
5945;SDS011;2998;48.206;16.394;2022-09-20T08:43:49;1.70;;;1.00;;
5945;SDS011;2998;48.206;16.394;2022-09-20T08:46:19;1.00;;;0.70;;
5945;SDS011;2998;48.206;16.394;2022-09-20T08:48:51;4.37;;;1.00;;
5945;SDS011;2998;48.206;16.394;2022-09-20T08:51:19;1.40;;;1.30;;
5945;SDS011;2998;48.206;16.394;2022-09-20T08:53:49;1.10;;;1.00;;
5945;SDS011;2998;48.206;16.394;2022-09-20T08:56:20;2.77;;;1.27;;
5945;SDS011;2998;48.206;16.394;2022-09-20T08:58:48;1.10;;;0.83;;
5945;SDS011;2998;48.206;16.394;2022-09-20T09:01:19;2.10;;;1.10;;
5945;SDS011;2998;48.206;16.394;2022-09-20T09:03:49;1.00;;;0.90;;
5945;SDS011;2998;48.206;16.394;2022-09-20T09:06:18;1.10;;;1.00;;
5945;SDS011;2998;48.206;16.394;2022-09-20T09:08:47;2.53;;;1.40;;
5945;SDS011;2998;48.206;16.394;2022-09-20T09:11:20;1.77;;;1.27;;
5945;SDS011;2998;48.206;16.394;2022-09-20T09:13:49;2.13;;;1.70;;
5945;SDS011;2998;48.206;16.394;2022-09-20T09:16:21;1.57;;;1.17;;
5945;SDS011;2998;48.206;16.394;2022-09-20T09:19:24;1.33;;;1.23;;
5945;SDS011;2998;48.206;16.394;2022-09-20T09:21:59;0.80;;;0.80;;
5945;SDS011;2998;48.206;16.394;2022-09-20T09:24:28;2.87;;;0.93;;
5945;SDS011;2998;48.206;16.394;2022-09-20T09:27:06;0.73;;;0.73;;
5945;SDS011;2998;48.206;16.394;2022-09-20T09:29:37;0.93;;;0.73;;
5945;SDS011;2998;48.206;16.394;2022-09-20T09:32:20;0.57;;;0.50;;
5945;SDS011;2998;48.206;16.394;2022-09-20T09:34:50;2.00;;;0.77;;
5945;SDS011;2998;48.206;16.394;2022-09-20T09:37:23;0.70;;;0.60;;
5945;SDS011;2998;48.206;16.394;2022-09-20T09:40:08;0.93;;;0.90;;
5945;SDS011;2998;48.206;16.394;2022-09-20T09:42:50;0.80;;;0.60;;
5945;SDS011;2998;48.206;16.394;2022-09-20T09:45:31;0.73;;;0.57;;
5945;SDS011;2998;48.206;16.394;2022-09-20T09:48:16;0.63;;;0.53;;
5945;SDS011;2998;48.206;16.394;2022-09-20T09:50:46;0.63;;;0.60;;
5945;SDS011;2998;48.206;16.394;2022-09-20T09:53:15;0.60;;;0.60;;
5945;SDS011;2998;48.206;16.394;2022-09-20T09:58:44;0.80;;;0.80;;
5945;SDS011;2998;48.206;16.394;2022-09-20T10:01:22;0.63;;;0.60;;
5945;SDS011;2998;48.206;16.394;2022-09-20T10:04:00;0.90;;;0.77;;
5945;SDS011;2998;48.206;16.394;2022-09-20T10:06:33;0.80;;;0.60;;
5945;SDS011;2998;48.206;16.394;2022-09-20T10:09:09;1.00;;;0.43;;
5945;SDS011;2998;48.206;16.394;2022-09-20T10:11:47;0.73;;;0.50;;
5945;SDS011;2998;48.206;16.394;2022-09-20T10:14:33;1.33;;;1.17;;
5945;SDS011;2998;48.206;16.394;2022-09-20T10:17:20;3.63;;;0.70;;
5945;SDS011;2998;48.206;16.394;2022-09-20T10:20:00;3.60;;;1.23;;
5945;SDS011;2998;48.206;16.394;2022-09-20T10:22:34;1.00;;;0.80;;
5945;SDS011;2998;48.206;16.394;2022-09-20T10:25:10;1.40;;;1.23;;
5945;SDS011;2998;48.206;16.394;2022-09-20T10:27:52;4.57;;;4.23;;
5945;SDS011;2998;48.206;16.394;2022-09-20T10:30:30;2.67;;;2.47;;
5945;SDS011;2998;48.206;16.394;2022-09-20T10:33:08;1.80;;;1.70;;
5945;SDS011;2998;48.206;16.394;2022-09-20T10:35:50;1.30;;;1.20;;
5945;SDS011;2998;48.206;16.394;2022-09-20T10:38:26;2.70;;;2.50;;
5945;SDS011;2998;48.206;16.394;2022-09-20T10:41:02;4.27;;;1.83;;
5945;SDS011;2998;48.206;16.394;2022-09-20T10:43:57;0.97;;;0.63;;
5945;SDS011;2998;48.206;16.394;2022-09-20T10:46:39;1.27;;;1.00;;
5945;SDS011;2998;48.206;16.394;2022-09-20T10:52:02;5.97;;;0.60;;
5945;SDS011;2998;48.206;16.394;2022-09-20T10:54:40;2.03;;;1.13;;
5945;SDS011;2998;48.206;16.394;2022-09-20T10:57:18;1.10;;;0.87;;
5945;SDS011;2998;48.206;16.394;2022-09-20T10:59:54;1.80;;;1.00;;
5945;SDS011;2998;48.206;16.394;2022-09-20T11:02:32;0.83;;;0.73;;
5945;SDS011;2998;48.206;16.394;2022-09-20T11:05:14;1.87;;;0.80;;
5945;SDS011;2998;48.206;16.394;2022-09-20T11:07:53;0.70;;;0.70;;
5945;SDS011;2998;48.206;16.394;2022-09-20T11:10:27;1.00;;;0.67;;
5945;SDS011;2998;48.206;16.394;2022-09-20T11:12:59;1.57;;;1.47;;
5945;SDS011;2998;48.206;16.394;2022-09-20T11:15:29;1.00;;;0.77;;
5945;SDS011;2998;48.206;16.394;2022-09-20T11:18:03;1.90;;;1.00;;
5945;SDS011;2998;48.206;16.394;2022-09-20T11:20:38;1.30;;;1.20;;
5945;SDS011;2998;48.206;16.394;2022-09-20T11:23:10;1.60;;;1.37;;
5945;SDS011;2998;48.206;16.394;2022-09-20T11:25:41;12.00;;;1.50;;
5945;SDS011;2998;48.206;16.394;2022-09-20T11:28:13;2.77;;;1.20;;
5945;SDS011;2998;48.206;16.394;2022-09-20T11:30:47;0.80;;;0.73;;
5945;SDS011;2998;48.206;16.394;2022-09-20T11:33:24;1.53;;;0.93;;
5945;SDS011;2998;48.206;16.394;2022-09-20T11:35:55;1.60;;;0.93;;
5945;SDS011;2998;48.206;16.394;2022-09-20T11:38:26;3.43;;;1.20;;
5945;SDS011;2998;48.206;16.394;2022-09-20T11:40:57;4.13;;;1.10;;
5945;SDS011;2998;48.206;16.394;2022-09-20T11:43:30;2.70;;;1.17;;
5945;SDS011;2998;48.206;16.394;2022-09-20T11:46:00;0.93;;;0.77;;
5945;SDS011;2998;48.206;16.394;2022-09-20T11:48:32;0.80;;;0.80;;
5945;SDS011;2998;48.206;16.394;2022-09-20T11:54:35;1.40;;;0.90;;
5945;SDS011;2998;48.206;16.394;2022-09-20T11:57:14;29.13;;;4.03;;
5945;SDS011;2998;48.206;16.394;2022-09-20T11:59:47;3.90;;;1.30;;
5945;SDS011;2998;48.206;16.394;2022-09-20T12:02:19;0.87;;;0.80;;
5945;SDS011;2998;48.206;16.394;2022-09-20T12:04:51;1.27;;;1.20;;
5945;SDS011;2998;48.206;16.394;2022-09-20T12:07:19;1.60;;;1.20;;
5945;SDS011;2998;48.206;16.394;2022-09-20T12:09:51;0.90;;;0.90;;
5945;SDS011;2998;48.206;16.394;2022-09-20T12:12:27;3.30;;;2.90;;
5945;SDS011;2998;48.206;16.394;2022-09-20T12:14:59;2.70;;;1.50;;
5945;SDS011;2998;48.206;16.394;2022-09-20T12:26:35;3.00;;;1.10;;
5945;SDS011;2998;48.206;16.394;2022-09-20T12:38:37;3.73;;;2.00;;
5945;SDS011;2998;48.206;16.394;2022-09-20T12:41:07;3.87;;;1.90;;
5945;SDS011;2998;48.206;16.394;2022-09-20T12:43:45;4.50;;;1.60;;
5945;SDS011;2998;48.206;16.394;2022-09-20T12:46:28;1.37;;;1.27;;
5945;SDS011;2998;48.206;16.394;2022-09-20T12:52:24;1.20;;;0.90;;
5945;SDS011;2998;48.206;16.394;2022-09-20T12:58:34;3.83;;;1.90;;
5945;SDS011;2998;48.206;16.394;2022-09-20T13:10:20;1.40;;;1.00;;
5945;SDS011;2998;48.206;16.394;2022-09-20T13:12:52;4.23;;;1.70;;
5945;SDS011;2998;48.206;16.394;2022-09-20T13:15:24;1.10;;;0.90;;
5945;SDS011;2998;48.206;16.394;2022-09-20T13:17:54;5.73;;;1.30;;
5945;SDS011;2998;48.206;16.394;2022-09-20T13:20:23;1.97;;;1.23;;
5945;SDS011;2998;48.206;16.394;2022-09-20T13:22:53;2.40;;;1.00;;
5945;SDS011;2998;48.206;16.394;2022-09-20T13:25:25;5.50;;;0.97;;
5945;SDS011;2998;48.206;16.394;2022-09-20T13:27:59;2.40;;;0.90;;
5945;SDS011;2998;48.206;16.394;2022-09-20T13:30:31;2.37;;;0.90;;
5945;SDS011;2998;48.206;16.394;2022-09-20T13:33:13;1.47;;;1.27;;
5945;SDS011;2998;48.206;16.394;2022-09-20T13:35:43;1.10;;;1.00;;
5945;SDS011;2998;48.206;16.394;2022-09-20T13:38:12;1.30;;;0.73;;
5945;SDS011;2998;48.206;16.394;2022-09-20T13:40:45;1.77;;;1.17;;
5945;SDS011;2998;48.206;16.394;2022-09-20T13:43:18;1.37;;;1.27;;
5945;SDS011;2998;48.206;16.394;2022-09-20T13:45:54;2.80;;;1.40;;
5945;SDS011;2998;48.206;16.394;2022-09-20T13:48:23;1.13;;;0.90;;
5945;SDS011;2998;48.206;16.394;2022-09-20T13:50:53;1.30;;;1.13;;
5945;SDS011;2998;48.206;16.394;2022-09-20T13:53:22;1.60;;;1.20;;
5945;SDS011;2998;48.206;16.394;2022-09-20T13:56:08;5.80;;;1.83;;
5945;SDS011;2998;48.206;16.394;2022-09-20T13:58:38;2.80;;;2.10;;
5945;SDS011;2998;48.206;16.394;2022-09-20T14:01:06;5.00;;;3.27;;
5945;SDS011;2998;48.206;16.394;2022-09-20T14:03:48;2.77;;;2.57;;
5945;SDS011;2998;48.206;16.394;2022-09-20T14:06:16;2.07;;;1.77;;
5945;SDS011;2998;48.206;16.394;2022-09-20T14:08:44;2.93;;;1.80;;
5945;SDS011;2998;48.206;16.394;2022-09-20T14:11:15;1.63;;;1.53;;
5945;SDS011;2998;48.206;16.394;2022-09-20T14:13:47;1.27;;;1.27;;
5945;SDS011;2998;48.206;16.394;2022-09-20T14:16:16;2.30;;;2.20;;
5945;SDS011;2998;48.206;16.394;2022-09-20T14:18:45;4.60;;;4.20;;
5945;SDS011;2998;48.206;16.394;2022-09-20T14:21:17;2.83;;;2.17;;
5945;SDS011;2998;48.206;16.394;2022-09-20T14:23:49;2.43;;;1.83;;
5945;SDS011;2998;48.206;16.394;2022-09-20T14:26:21;2.00;;;1.00;;
5945;SDS011;2998;48.206;16.394;2022-09-20T14:28:53;1.27;;;0.80;;
5945;SDS011;2998;48.206;16.394;2022-09-20T14:31:22;1.00;;;0.90;;
5945;SDS011;2998;48.206;16.394;2022-09-20T14:33:54;1.40;;;1.10;;
5945;SDS011;2998;48.206;16.394;2022-09-20T14:36:25;2.40;;;1.57;;
5945;SDS011;2998;48.206;16.394;2022-09-20T14:38:55;1.40;;;0.97;;
5945;SDS011;2998;48.206;16.394;2022-09-20T14:41:26;2.70;;;2.50;;
5945;SDS011;2998;48.206;16.394;2022-09-20T14:43:57;2.60;;;1.47;;
5945;SDS011;2998;48.206;16.394;2022-09-20T14:46:31;1.73;;;1.03;;
5945;SDS011;2998;48.206;16.394;2022-09-20T14:51:48;1.23;;;0.87;;
5945;SDS011;2998;48.206;16.394;2022-09-20T14:54:22;2.20;;;1.00;;
5945;SDS011;2998;48.206;16.394;2022-09-20T14:56:53;1.50;;;1.40;;
5945;SDS011;2998;48.206;16.394;2022-09-20T14:59:24;1.00;;;0.90;;
5945;SDS011;2998;48.206;16.394;2022-09-20T15:01:54;1.30;;;1.10;;
5945;SDS011;2998;48.206;16.394;2022-09-20T15:04:24;1.27;;;0.83;;
5945;SDS011;2998;48.206;16.394;2022-09-20T15:06:54;1.43;;;1.30;;
5945;SDS011;2998;48.206;16.394;2022-09-20T15:09:23;0.90;;;0.90;;
5945;SDS011;2998;48.206;16.394;2022-09-20T15:11:57;0.73;;;0.73;;
5945;SDS011;2998;48.206;16.394;2022-09-20T15:14:28;2.70;;;0.90;;
5945;SDS011;2998;48.206;16.394;2022-09-20T15:17:02;2.07;;;0.60;;
5945;SDS011;2998;48.206;16.394;2022-09-20T15:19:30;1.00;;;0.83;;
5945;SDS011;2998;48.206;16.394;2022-09-20T15:21:59;2.50;;;0.90;;
5945;SDS011;2998;48.206;16.394;2022-09-20T15:24:28;1.37;;;0.73;;
5945;SDS011;2998;48.206;16.394;2022-09-20T15:26:56;1.00;;;0.50;;
5945;SDS011;2998;48.206;16.394;2022-09-20T15:29:24;0.83;;;0.83;;
5945;SDS011;2998;48.206;16.394;2022-09-20T15:31:53;1.30;;;1.00;;
5945;SDS011;2998;48.206;16.394;2022-09-20T15:34:22;4.50;;;0.90;;
5945;SDS011;2998;48.206;16.394;2022-09-20T15:36:50;2.93;;;0.73;;
5945;SDS011;2998;48.206;16.394;2022-09-20T15:39:19;0.90;;;0.90;;
5945;SDS011;2998;48.206;16.394;2022-09-20T15:41:49;2.40;;;0.80;;
5945;SDS011;2998;48.206;16.394;2022-09-20T15:44:18;0.80;;;0.80;;
5945;SDS011;2998;48.206;16.394;2022-09-20T15:46:46;2.23;;;0.90;;
5945;SDS011;2998;48.206;16.394;2022-09-20T15:49:16;1.40;;;0.83;;
5945;SDS011;2998;48.206;16.394;2022-09-20T15:51:44;1.43;;;0.90;;
5945;SDS011;2998;48.206;16.394;2022-09-20T15:54:13;1.53;;;1.43;;
5945;SDS011;2998;48.206;16.394;2022-09-20T15:56:41;1.93;;;1.80;;
5945;SDS011;2998;48.206;16.394;2022-09-20T15:59:10;10.53;;;6.20;;
5945;SDS011;2998;48.206;16.394;2022-09-20T16:01:40;2.30;;;1.77;;
5945;SDS011;2998;48.206;16.394;2022-09-20T16:04:09;1.80;;;0.70;;
5945;SDS011;2998;48.206;16.394;2022-09-20T16:06:40;3.30;;;2.13;;
5945;SDS011;2998;48.206;16.394;2022-09-20T16:09:09;2.17;;;1.90;;
5945;SDS011;2998;48.206;16.394;2022-09-20T16:11:37;7.33;;;2.20;;
5945;SDS011;2998;48.206;16.394;2022-09-20T16:14:06;1.50;;;1.40;;
5945;SDS011;2998;48.206;16.394;2022-09-20T16:16:34;5.70;;;4.07;;
5945;SDS011;2998;48.206;16.394;2022-09-20T16:19:06;14.23;;;6.93;;
5945;SDS011;2998;48.206;16.394;2022-09-20T16:21:51;3.53;;;3.13;;
5945;SDS011;2998;48.206;16.394;2022-09-20T16:24:25;1.27;;;1.17;;
5945;SDS011;2998;48.206;16.394;2022-09-20T16:26:54;4.17;;;3.70;;
5945;SDS011;2998;48.206;16.394;2022-09-20T16:29:22;4.40;;;4.00;;
5945;SDS011;2998;48.206;16.394;2022-09-20T16:31:51;3.97;;;3.67;;
5945;SDS011;2998;48.206;16.394;2022-09-20T16:34:20;3.30;;;2.70;;
5945;SDS011;2998;48.206;16.394;2022-09-20T16:36:52;3.17;;;2.97;;
5945;SDS011;2998;48.206;16.394;2022-09-20T16:39:22;3.47;;;3.17;;
5945;SDS011;2998;48.206;16.394;2022-09-20T16:41:51;2.83;;;2.67;;
5945;SDS011;2998;48.206;16.394;2022-09-20T16:44:20;3.70;;;3.50;;
5945;SDS011;2998;48.206;16.394;2022-09-20T16:46:48;7.97;;;7.27;;
5945;SDS011;2998;48.206;16.394;2022-09-20T16:49:16;5.40;;;5.00;;
5945;SDS011;2998;48.206;16.394;2022-09-20T16:51:44;2.23;;;2.13;;
5945;SDS011;2998;48.206;16.394;2022-09-20T16:54:14;3.80;;;3.60;;
5945;SDS011;2998;48.206;16.394;2022-09-20T16:56:43;4.67;;;4.37;;